Time;durP1;ratioP1;P1;durP2;ratioP2;P2;SDS_P1;SDS_P2;PMS_P1;PMS_P2;Temp;Humidity;BMP_temperature;BMP_pressure;BME280_temperature;BME280_humidity;BME280_pressure;Samples;Min_cycle;Max_cycle;Signal;HPM_P1;HPM_P2
2022/10/26 00:00:01;;;;;;;2.30;1.30;;;8.70;99.90;;;;;;5204458;28;20557;-76
2022/10/26 00:02:35;;;;;;;2.05;1.55;;;8.60;99.90;;;;;;5175406;28;20040;-75
2022/10/26 00:05:07;;;;;;;2.20;1.48;;;8.60;99.90;;;;;;5194245;28;20053;-75
2022/10/26 00:07:43;;;;;;;2.10;1.55;;;8.50;99.90;;;;;;5189381;28;20030;-75
2022/10/26 00:10:20;;;;;;;1.83;1.27;;;8.40;99.90;;;;;;5193361;28;20235;-75
2022/10/26 00:12:54;;;;;;;2.55;1.60;;;8.40;99.90;;;;;;5175230;28;20033;-75
2022/10/26 00:15:28;;;;;;;2.80;1.20;;;8.40;99.90;;;;;;5190904;28;20032;-75
2022/10/26 00:18:00;;;;;;;5.80;1.63;;;8.50;99.90;;;;;;5196145;28;20048;-75
2022/10/26 00:20:34;;;;;;;2.72;1.20;;;8.50;99.90;;;;;;5190398;28;20194;-75
2022/10/26 00:23:07;;;;;;;4.78;2.05;;;8.50;99.90;;;;;;5192426;28;20338;-75
2022/10/26 00:25:41;;;;;;;1.27;1.13;;;8.60;99.90;;;;;;5203233;28;20060;-75
2022/10/26 00:28:14;;;;;;;1.35;1.00;;;8.60;99.90;;;;;;5180956;28;20454;-75
2022/10/26 00:30:46;;;;;;;1.90;1.33;;;8.70;99.90;;;;;;5181917;28;20523;-74
2022/10/26 00:33:17;;;;;;;2.00;0.88;;;8.80;99.90;;;;;;5209993;28;20033;-75
2022/10/26 00:35:55;;;;;;;2.13;1.52;;;8.80;99.90;;;;;;5210906;28;20214;-75
2022/10/26 00:38:26;;;;;;;3.80;1.10;;;8.80;99.90;;;;;;5193629;28;20025;-75
2022/10/26 00:40:57;;;;;;;1.70;0.95;;;8.80;99.90;;;;;;5167028;28;20037;-74
2022/10/26 00:43:28;;;;;;;2.65;1.35;;;8.70;99.90;;;;;;5201992;28;20021;-76
2022/10/26 00:46:04;;;;;;;1.52;1.10;;;8.70;99.90;;;;;;5185803;28;20060;-76
2022/10/26 00:48:39;;;;;;;2.85;1.30;;;8.70;99.90;;;;;;5186220;28;20063;-76
2022/10/26 00:51:31;;;;;;;2.05;0.80;;;8.60;99.90;;;;;;5184851;28;20243;-77
2022/10/26 00:54:07;;;;;;;1.08;1.08;;;8.50;99.90;;;;;;5204998;28;20353;-75
2022/10/26 00:56:39;;;;;;;3.60;1.10;;;8.50;99.90;;;;;;5176895;28;20042;-76
2022/10/26 00:59:13;;;;;;;2.63;1.30;;;8.40;99.90;;;;;;5196550;28;20049;-76
2022/10/26 01:01:47;;;;;;;0.93;0.90;;;8.30;99.90;;;;;;5202085;28;20037;-77
2022/10/26 01:04:19;;;;;;;1.45;1.30;;;8.30;99.90;;;;;;5193414;28;20215;-76
2022/10/26 01:06:54;;;;;;;1.67;1.17;;;8.30;99.90;;;;;;5203857;28;20035;-76
2022/10/26 01:09:28;;;;;;;4.75;1.13;;;8.30;99.90;;;;;;5202732;28;20042;-75
2022/10/26 01:12:01;;;;;;;1.58;1.48;;;8.30;99.90;;;;;;5166934;28;20041;-77
2022/10/26 01:14:33;;;;;;;1.83;1.35;;;8.30;99.90;;;;;;5184768;28;20040;-75
2022/10/26 01:17:13;;;;;;;1.70;1.13;;;8.30;99.90;;;;;;5186216;28;20330;-75
2022/10/26 01:20:22;;;;;;;3.90;1.27;;;8.30;99.90;;;;;;5203685;28;20033;-74
2022/10/26 01:23:14;;;;;;;1.85;1.38;;;8.30;99.90;;;;;;5115715;28;20032;-76
2022/10/26 01:26:00;;;;;;;1.35;1.25;;;8.30;99.90;;;;;;5202466;28;20029;-76
2022/10/26 01:28:52;;;;;;;6.88;1.98;;;8.40;99.90;;;;;;5203248;28;20043;-75
2022/10/26 01:31:32;;;;;;;1.00;1.00;;;8.40;99.90;;;;;;5203152;28;20031;-75
2022/10/26 01:34:32;;;;;;;0.98;0.68;;;8.40;99.90;;;;;;5202600;28;20028;-75
2022/10/26 01:37:11;;;;;;;4.63;1.15;;;8.40;99.90;;;;;;5177838;28;20538;-75
2022/10/26 01:39:52;;;;;;;1.50;1.17;;;8.40;99.90;;;;;;5199525;28;21211;-74
2022/10/26 01:42:33;;;;;;;1.00;0.90;;;8.40;99.90;;;;;;5205160;28;20048;-77
2022/10/26 01:45:10;;;;;;;1.10;1.00;;;8.40;99.90;;;;;;5207630;28;20037;-75
2022/10/26 01:47:46;;;;;;;3.25;1.20;;;8.50;99.90;;;;;;5205214;28;20045;-75
2022/10/26 01:50:27;;;;;;;2.30;1.08;;;8.50;99.90;;;;;;5223027;28;20055;-74
2022/10/26 01:52:59;;;;;;;1.08;0.95;;;8.40;99.90;;;;;;5198105;28;20041;-76
2022/10/26 01:55:50;;;;;;;1.30;1.20;;;8.40;99.90;;;;;;5198602;28;20047;-75
2022/10/26 01:58:43;;;;;;;1.20;1.00;;;8.40;99.90;;;;;;5191312;28;20167;-76
2022/10/26 02:01:41;;;;;;;1.42;1.30;;;8.40;99.90;;;;;;5185626;28;20064;-77
2022/10/26 02:04:55;;;;;;;1.80;1.20;;;8.50;99.90;;;;;;5180224;28;20359;-76
2022/10/26 02:08:22;;;;;;;1.85;1.13;;;8.50;99.90;;;;;;5199214;28;20044;-77
2022/10/26 02:11:48;;;;;;;7.28;1.20;;;8.40;99.90;;;;;;5188663;28;20040;-76
2022/10/26 02:14:54;;;;;;;1.48;1.20;;;8.40;99.90;;;;;;5202892;28;20033;-75
2022/10/26 02:17:59;;;;;;;1.73;1.25;;;8.40;99.90;;;;;;5198155;28;20029;-77
2022/10/26 02:20:56;;;;;;;6.18;1.52;;;8.30;99.90;;;;;;5203345;28;20612;-75
2022/10/26 02:23:49;;;;;;;1.40;1.30;;;8.20;99.90;;;;;;5201755;28;20039;-73
2022/10/26 02:26:44;;;;;;;1.50;1.40;;;8.10;99.90;;;;;;5199869;28;20039;-75
2022/10/26 02:29:37;;;;;;;1.27;1.17;;;8.00;99.90;;;;;;5202578;28;20030;-76
2022/10/26 02:32:33;;;;;;;1.63;1.38;;;8.00;99.90;;;;;;5203892;28;20210;-77
2022/10/26 02:35:28;;;;;;;1.40;1.20;;;8.10;99.90;;;;;;5200166;28;20022;-76
2022/10/26 02:38:25;;;;;;;1.48;1.33;;;8.00;99.90;;;;;;5182913;28;20060;-76
2022/10/26 02:41:18;;;;;;;2.17;1.42;;;7.90;99.90;;;;;;5192014;28;20041;-76
2022/10/26 02:44:23;;;;;;;2.17;1.95;;;7.80;99.90;;;;;;5202335;28;20018;-76
2022/10/26 02:47:19;;;;;;;2.67;1.55;;;7.70;99.90;;;;;;5197941;28;20034;-76
2022/10/26 02:50:11;;;;;;;1.75;1.38;;;7.70;99.90;;;;;;5203914;28;20034;-76
2022/10/26 02:53:24;;;;;;;6.15;1.77;;;7.60;99.90;;;;;;5210840;28;20028;-76
2022/10/26 02:56:21;;;;;;;1.23;1.13;;;7.60;99.90;;;;;;5185246;28;20031;-75
2022/10/26 02:59:23;;;;;;;7.22;1.35;;;7.60;99.90;;;;;;5203038;28;20204;-74
2022/10/26 03:02:17;;;;;;;2.05;1.58;;;7.60;99.90;;;;;;5198380;28;20029;-75
2022/10/26 03:05:15;;;;;;;1.15;1.10;;;7.80;99.90;;;;;;5191163;28;20046;-75
2022/10/26 03:08:08;;;;;;;1.88;1.30;;;7.80;99.90;;;;;;5181956;28;20331;-75
2022/10/26 03:11:03;;;;;;;2.60;2.20;;;7.80;99.90;;;;;;5192406;28;20025;-75
2022/10/26 03:13:58;;;;;;;3.80;2.03;;;8.00;99.90;;;;;;5204185;28;20037;-77
2022/10/26 03:16:49;;;;;;;3.92;1.80;;;7.90;99.90;;;;;;5190663;28;20583;-77
2022/10/26 03:19:47;;;;;;;1.50;1.30;;;7.90;99.90;;;;;;5206421;28;20285;-76
2022/10/26 03:22:38;;;;;;;1.33;1.23;;;7.80;99.90;;;;;;5204973;28;20249;-76
2022/10/26 03:25:32;;;;;;;2.30;1.73;;;7.80;99.90;;;;;;5183986;28;20021;-76
2022/10/26 03:28:24;;;;;;;2.27;1.77;;;7.80;99.90;;;;;;5185031;28;20025;-75
2022/10/26 03:31:15;;;;;;;2.70;2.05;;;7.80;99.90;;;;;;5201586;28;20383;-76
2022/10/26 03:34:08;;;;;;;3.85;2.30;;;7.80;99.90;;;;;;5205485;28;20418;-75
2022/10/26 03:37:04;;;;;;;7.25;2.30;;;7.90;99.90;;;;;;5208378;28;20028;-76
2022/10/26 03:39:55;;;;;;;2.92;2.00;;;7.90;99.90;;;;;;5225189;28;20048;-76
2022/10/26 03:42:47;;;;;;;2.10;1.40;;;8.00;99.90;;;;;;5206856;28;20063;-76
2022/10/26 03:45:38;;;;;;;5.43;1.80;;;8.00;99.90;;;;;;5201131;28;20319;-76
2022/10/26 03:48:29;;;;;;;4.82;1.98;;;8.10;99.90;;;;;;5169226;28;20034;-76
2022/10/26 03:51:24;;;;;;;5.00;2.17;;;8.10;99.90;;;;;;5204055;28;20033;-76
2022/10/26 03:54:15;;;;;;;1.70;1.42;;;8.30;99.90;;;;;;5178024;28;20222;-76
2022/10/26 03:57:07;;;;;;;4.15;2.00;;;8.40;99.90;;;;;;5204913;28;20361;-76
2022/10/26 04:00:02;;;;;;;4.72;2.70;;;8.50;99.90;;;;;;5204392;28;20037;-75
2022/10/26 04:02:56;;;;;;;5.18;2.50;;;8.50;99.90;;;;;;5190007;28;20550;-76
2022/10/26 04:05:47;;;;;;;5.93;2.75;;;8.40;99.90;;;;;;5174258;28;20046;-76
2022/10/26 04:08:39;;;;;;;6.57;2.90;;;8.40;99.90;;;;;;5183382;28;20557;-76
2022/10/26 04:11:33;;;;;;;4.50;2.63;;;8.50;99.90;;;;;;5201910;28;20029;-76
2022/10/26 04:14:25;;;;;;;6.85;3.38;;;8.50;99.90;;;;;;5203120;28;20198;-76
2022/10/26 04:17:18;;;;;;;5.90;2.75;;;8.40;99.90;;;;;;5202444;28;20036;-75
2022/10/26 04:20:10;;;;;;;7.88;2.90;;;8.40;99.90;;;;;;5203848;28;20029;-77
2022/10/26 04:23:05;;;;;;;4.88;2.40;;;8.30;99.90;;;;;;5203245;28;20043;-75
2022/10/26 04:25:56;;;;;;;6.40;2.50;;;8.20;99.90;;;;;;5204903;28;20031;-75
2022/10/26 04:28:48;;;;;;;2.80;2.03;;;8.20;99.90;;;;;;5196169;28;20233;-74
2022/10/26 04:31:42;;;;;;;3.60;2.25;;;8.20;99.90;;;;;;5188432;28;20044;-75
2022/10/26 04:34:33;;;;;;;3.75;2.30;;;8.20;99.90;;;;;;5193404;28;20055;-75
2022/10/26 04:37:27;;;;;;;4.07;2.60;;;8.20;99.90;;;;;;5211027;28;20030;-75
2022/10/26 04:40:19;;;;;;;5.45;2.30;;;8.20;99.90;;;;;;5215602;28;20205;-74
2022/10/26 04:43:10;;;;;;;2.45;2.17;;;8.20;99.90;;;;;;5217428;28;20035;-75
2022/10/26 04:46:02;;;;;;;6.00;3.60;;;8.30;99.90;;;;;;5181151;28;20043;-75
2022/10/26 04:48:53;;;;;;;7.20;3.95;;;8.30;99.90;;;;;;5214212;28;20029;-74
2022/10/26 04:51:47;;;;;;;9.95;3.33;;;8.40;99.90;;;;;;5211545;28;20030;-74
2022/10/26 04:54:39;;;;;;;7.00;3.22;;;8.40;99.90;;;;;;5208084;28;20027;-75
2022/10/26 04:57:34;;;;;;;7.85;3.67;;;8.50;99.90;;;;;;5204190;28;20029;-74
2022/10/26 05:00:29;;;;;;;6.05;3.83;;;8.50;99.90;;;;;;5195224;28;20329;-74
2022/10/26 05:03:20;;;;;;;5.53;3.17;;;8.50;99.90;;;;;;5209549;28;20202;-75
2022/10/26 05:06:17;;;;;;;5.05;2.63;;;8.50;99.90;;;;;;5207121;28;20057;-75
2022/10/26 05:09:11;;;;;;;7.05;3.03;;;8.60;99.90;;;;;;5205394;28;20017;-74
2022/10/26 05:12:05;;;;;;;4.55;3.47;;;8.50;99.90;;;;;;5193149;28;20025;-77
2022/10/26 05:14:59;;;;;;;3.42;2.88;;;8.50;99.90;;;;;;5199827;28;20025;-78
2022/10/26 05:17:58;;;;;;;5.90;2.97;;;8.60;99.90;;;;;;5187100;28;20192;-76
2022/10/26 05:20:52;;;;;;;3.85;2.90;;;8.50;99.90;;;;;;5202099;28;20040;-77
2022/10/26 05:23:54;;;;;;;4.53;3.23;;;8.50;99.90;;;;;;5200187;28;20383;-76
2022/10/26 05:26:45;;;;;;;6.03;3.08;;;8.50;99.90;;;;;;5182296;28;20270;-76
2022/10/26 05:29:40;;;;;;;6.10;3.15;;;8.50;99.90;;;;;;5187628;28;20029;-77
2022/10/26 05:32:31;;;;;;;4.32;2.42;;;8.50;99.90;;;;;;5196078;28;20039;-75
2022/10/26 05:35:25;;;;;;;3.92;2.70;;;8.50;99.90;;;;;;5204886;28;20031;-76
2022/10/26 05:38:19;;;;;;;7.07;2.47;;;8.60;99.90;;;;;;5199988;28;20354;-75
2022/10/26 05:41:16;;;;;;;3.13;2.50;;;8.60;99.90;;;;;;5184659;28;20215;-75
2022/10/26 05:44:10;;;;;;;3.90;2.45;;;8.60;99.90;;;;;;5201073;28;20056;-74
2022/10/26 05:47:01;;;;;;;3.42;2.53;;;8.60;99.90;;;;;;5199915;28;20025;-75
2022/10/26 05:49:55;;;;;;;6.63;3.42;;;8.60;99.90;;;;;;5208613;28;20033;-75
2022/10/26 05:52:49;;;;;;;4.25;3.50;;;8.70;99.90;;;;;;5208303;28;20037;-77
2022/10/26 05:55:47;;;;;;;4.38;2.78;;;8.90;99.90;;;;;;5200864;28;20565;-78
2022/10/26 05:58:42;;;;;;;7.07;2.65;;;9.10;99.90;;;;;;5200236;28;20045;-77
2022/10/26 06:01:46;;;;;;;5.78;2.92;;;9.20;99.90;;;;;;5190442;28;20420;-77
2022/10/26 06:04:46;;;;;;;5.35;3.38;;;9.30;99.90;;;;;;5190687;28;20049;-76
2022/10/26 06:07:38;;;;;;;7.05;3.85;;;9.50;99.90;;;;;;5192454;28;20631;-76
2022/10/26 06:10:32;;;;;;;6.95;3.50;;;9.70;99.90;;;;;;5197609;28;20033;-76
2022/10/26 06:13:24;;;;;;;5.28;3.03;;;9.80;99.90;;;;;;5196156;28;20636;-76
2022/10/26 06:16:43;;;;;;;3.95;2.63;;;10.00;99.90;;;;;;5185771;28;20030;-76
2022/10/26 06:19:41;;;;;;;6.55;3.85;;;10.10;99.90;;;;;;5196307;28;20025;-75
2022/10/26 06:22:32;;;;;;;8.95;5.32;;;10.30;99.90;;;;;;5200715;28;20021;-76
2022/10/26 06:25:35;;;;;;;7.10;4.28;;;10.40;99.90;;;;;;5199114;28;20022;-75
2022/10/26 06:28:30;;;;;;;6.82;4.03;;;10.50;99.90;;;;;;5185427;28;20579;-75
2022/10/26 06:31:21;;;;;;;12.68;5.53;;;10.70;99.90;;;;;;5201352;28;20210;-75
2022/10/26 06:34:27;;;;;;;8.55;4.70;;;10.70;99.90;;;;;;5201777;28;20029;-76
2022/10/26 06:37:19;;;;;;;7.78;5.00;;;10.70;99.90;;;;;;5200873;28;20040;-76
2022/10/26 06:40:15;;;;;;;5.57;4.03;;;10.80;99.90;;;;;;5201104;28;20441;-76
2022/10/26 06:43:25;;;;;;;5.43;3.70;;;10.90;99.90;;;;;;5174012;28;20056;-76
2022/10/26 06:46:43;;;;;;;7.53;4.75;;;10.90;99.90;;;;;;5195951;28;20033;-75
2022/10/26 06:49:39;;;;;;;11.70;5.53;;;11.10;99.90;;;;;;5187309;28;20318;-76
2022/10/26 06:52:43;;;;;;;7.43;5.03;;;11.20;99.90;;;;;;5184992;28;20332;-76
2022/10/26 06:55:43;;;;;;;8.07;5.57;;;11.40;99.90;;;;;;5205400;28;20029;-76
2022/10/26 06:58:36;;;;;;;6.95;4.68;;;11.60;99.90;;;;;;5205493;28;20309;-75
2022/10/26 07:01:27;;;;;;;6.97;5.05;;;11.70;99.90;;;;;;5188641;28;20041;-76
2022/10/26 07:04:21;;;;;;;8.60;4.47;;;11.90;99.90;;;;;;5192812;28;20021;-75
2022/10/26 07:07:21;;;;;;;7.15;4.68;;;12.00;99.90;;;;;;5181848;28;20062;-76
2022/10/26 07:10:16;;;;;;;5.35;3.95;;;11.90;99.90;;;;;;5168156;28;20041;-77
2022/10/26 07:13:11;;;;;;;;;;;12.00;99.90;;;;;;5182337;28;20017;-76
2022/10/26 07:16:06;;;;;;;8.18;5.13;;;12.10;99.90;;;;;;5199161;28;19917;-75
2022/10/26 07:18:57;;;;;;;5.95;4.55;;;12.20;99.90;;;;;;5185958;28;20314;-76
2022/10/26 07:21:49;;;;;;;6.85;4.50;;;12.30;99.90;;;;;;5201157;28;20029;-77
2022/10/26 07:24:40;;;;;;;8.13;5.40;;;12.40;99.90;;;;;;5200251;28;20202;-76
2022/10/26 07:27:31;;;;;;;8.30;6.13;;;12.40;99.90;;;;;;5186597;28;20029;-75
2022/10/26 07:30:23;;;;;;;22.17;9.57;;;12.30;99.90;;;;;;5200519;28;20044;-76
2022/10/26 07:33:18;;;;;;;11.82;7.95;;;12.30;99.90;;;;;;5197919;28;20053;-75
2022/10/26 07:36:12;;;;;;;14.13;8.35;;;12.20;99.90;;;;;;5187173;28;20031;-77
2022/10/26 07:39:06;;;;;;;21.15;9.68;;;12.20;99.90;;;;;;5200699;28;20631;-75
2022/10/26 07:41:57;;;;;;;15.90;9.05;;;12.30;99.90;;;;;;5200653;28;20032;-75
2022/10/26 07:44:49;;;;;;;16.10;8.68;;;12.50;99.90;;;;;;5200291;28;20203;-76
2022/10/26 07:47:45;;;;;;;15.95;7.97;;;12.70;99.90;;;;;;5199472;28;20033;-75
2022/10/26 07:50:36;;;;;;;13.52;8.93;;;12.80;99.90;;;;;;5200319;28;20362;-77
2022/10/26 07:53:30;;;;;;;20.20;9.90;;;12.90;99.90;;;;;;5184692;28;20036;-77
2022/10/26 07:56:22;;;;;;;16.85;8.00;;;12.80;99.90;;;;;;5201342;28;20208;-76
2022/10/26 07:59:13;;;;;;;15.23;8.18;;;12.90;99.90;;;;;;5204992;28;20358;-78
2022/10/26 08:02:05;;;;;;;17.42;8.88;;;13.00;99.90;;;;;;5204280;28;20041;-77
2022/10/26 08:04:56;;;;;;;13.35;7.03;;;13.10;99.90;;;;;;5194345;28;20060;-75
2022/10/26 08:07:48;;;;;;;16.63;7.35;;;13.30;99.90;;;;;;5205045;28;20298;-77
2022/10/26 08:10:46;;;;;;;9.85;6.78;;;13.20;99.90;;;;;;5207051;28;20024;-77
2022/10/26 08:13:38;;;;;;;10.75;6.45;;;13.20;99.90;;;;;;5190486;28;20025;-76
2022/10/26 08:16:38;;;;;;;13.30;7.13;;;13.00;99.90;;;;;;5188095;28;20022;-77
2022/10/26 08:19:30;;;;;;;9.73;6.35;;;13.10;99.90;;;;;;5186636;28;20347;-77
2022/10/26 08:22:21;;;;;;;12.10;6.22;;;13.30;99.90;;;;;;5183155;28;20547;-77
2022/10/26 08:25:13;;;;;;;10.77;6.63;;;13.40;99.90;;;;;;5182557;28;20032;-77
2022/10/26 08:28:04;;;;;;;16.77;7.72;;;13.40;99.90;;;;;;5183110;28;20227;-76
2022/10/26 08:30:56;;;;;;;20.45;9.10;;;13.40;99.90;;;;;;5182581;28;20384;-77
2022/10/26 08:33:47;;;;;;;15.30;8.07;;;13.20;99.90;;;;;;5172800;28;20026;-76
2022/10/26 08:36:44;;;;;;;20.13;10.38;;;13.20;99.90;;;;;;5182699;28;20203;-77
2022/10/26 08:39:35;;;;;;;21.63;10.40;;;13.10;99.90;;;;;;5183076;28;20361;-76
2022/10/26 08:42:59;;;;;;;28.60;10.63;;;13.20;99.90;;;;;;5182276;28;20025;-76
2022/10/26 08:46:09;;;;;;;28.17;11.13;;;13.20;99.90;;;;;;5091985;29;20047;-76
2022/10/26 08:49:26;;;;;;;19.48;10.27;;;13.10;99.90;;;;;;5120064;29;20380;-77
2022/10/26 08:52:37;;;;;;;22.13;10.20;;;13.10;99.90;;;;;;5108197;28;20042;-76
2022/10/26 08:55:39;;;;;;;25.30;10.57;;;13.20;99.90;;;;;;5119603;29;20066;-77
2022/10/26 08:58:44;;;;;;;21.13;10.85;;;13.30;99.90;;;;;;5119799;28;20052;-76
2022/10/26 09:01:39;;;;;;;15.95;8.85;;;13.20;99.90;;;;;;5112291;28;20043;-77
2022/10/26 09:04:36;;;;;;;18.55;9.27;;;13.30;99.90;;;;;;5107315;28;20055;-76
2022/10/26 09:07:28;;;;;;;17.77;7.80;;;13.40;99.90;;;;;;5120183;28;20043;-77
2022/10/26 09:10:51;;;;;;;16.55;8.63;;;13.70;99.90;;;;;;5119266;28;20046;-77
2022/10/26 09:13:50;;;;;;;18.13;9.23;;;14.10;99.90;;;;;;5107571;29;20022;-76
2022/10/26 09:17:04;;;;;;;16.23;8.30;;;14.30;99.90;;;;;;5108713;28;20089;-77
2022/10/26 09:20:33;;;;;;;20.95;9.88;;;14.50;99.90;;;;;;5086510;29;20260;-77
2022/10/26 09:23:42;;;;;;;17.70;9.60;;;14.60;99.90;;;;;;5177585;28;20583;-77
2022/10/26 09:26:39;;;;;;;19.52;10.75;;;14.60;99.90;;;;;;5182627;28;20034;-77
2022/10/26 09:29:39;;;;;;;23.10;11.52;;;14.30;99.90;;;;;;5186820;28;20239;-77
2022/10/26 09:32:43;;;;;;;20.63;11.32;;;14.20;99.90;;;;;;5199816;28;20108;-76
2022/10/26 09:35:54;;;;;;;26.17;11.25;;;14.30;99.90;;;;;;5175364;28;20033;-76
2022/10/26 09:38:52;;;;;;;22.73;11.55;;;14.10;99.90;;;;;;5201892;28;20338;-77
2022/10/26 09:42:19;;;;;;;24.02;11.40;;;13.90;99.90;;;;;;5187702;28;20037;-77
2022/10/26 09:45:16;;;;;;;26.33;12.30;;;13.80;99.90;;;;;;5183348;28;20041;-76
2022/10/26 09:48:37;;;;;;;25.95;12.68;;;13.70;99.90;;;;;;5167124;28;20033;-76
2022/10/26 09:51:29;;;;;;;23.33;12.77;;;13.60;99.90;;;;;;5181434;28;20399;-76
2022/10/26 09:54:21;;;;;;;29.45;14.98;;;13.60;99.90;;;;;;5180872;28;20022;-76
2022/10/26 09:57:21;;;;;;;26.83;13.77;;;13.50;99.90;;;;;;5193210;28;20033;-76
2022/10/26 10:00:18;;;;;;;25.73;14.70;;;13.60;99.90;;;;;;5202454;28;20055;-75
2022/10/26 10:03:20;;;;;;;24.88;12.75;;;13.70;99.90;;;;;;5202118;28;20037;-75
2022/10/26 10:06:17;;;;;;;23.85;12.55;;;14.00;99.90;;;;;;5192265;28;20060;-76
2022/10/26 10:09:12;;;;;;;26.60;12.90;;;14.00;99.90;;;;;;5200408;28;20044;-76
2022/10/26 10:12:19;;;;;;;23.95;13.32;;;14.10;99.90;;;;;;5187596;28;20026;-75
2022/10/26 10:15:31;;;;;;;26.77;13.27;;;14.10;99.90;;;;;;5179865;28;20027;-77
2022/10/26 10:18:26;;;;;;;25.63;13.75;;;14.20;99.90;;;;;;5180605;28;20021;-77
2022/10/26 10:21:21;;;;;;;30.83;14.68;;;14.10;99.90;;;;;;5179347;28;20359;-77
2022/10/26 10:24:40;;;;;;;23.30;12.77;;;14.00;99.90;;;;;;5180174;28;20032;-76
2022/10/26 10:27:32;;;;;;;23.63;12.77;;;14.40;99.90;;;;;;5198670;28;20058;-76
2022/10/26 10:30:31;;;;;;;25.70;13.02;;;14.60;99.90;;;;;;5200484;28;20224;-75
2022/10/26 10:33:33;;;;;;;23.50;12.27;;;14.90;99.90;;;;;;5201250;28;20031;-76
2022/10/26 10:36:29;;;;;;;25.85;12.85;;;15.20;99.90;;;;;;5186893;28;20029;-75
2022/10/26 10:39:34;;;;;;;26.38;13.63;;;15.30;99.90;;;;;;5186233;28;20333;-78
2022/10/26 10:42:44;;;;;;;22.63;12.02;;;15.40;99.90;;;;;;5199949;28;20029;-77
2022/10/26 10:45:36;;;;;;;24.90;13.07;;;15.10;99.90;;;;;;5198748;28;20029;-75
2022/10/26 10:48:28;;;;;;;24.02;12.40;;;15.30;99.90;;;;;;5200328;28;20207;-75
2022/10/26 10:51:24;;;;;;;18.73;12.07;;;15.60;99.90;;;;;;5186005;28;20241;-74
2022/10/26 10:54:38;;;;;;;22.23;12.13;;;15.80;99.90;;;;;;5201133;28;20025;-75
2022/10/26 10:57:46;;;;;;;22.27;12.52;;;15.70;99.90;;;;;;5199774;28;20310;-75
2022/10/26 11:00:46;;;;;;;26.85;13.02;;;15.80;99.90;;;;;;5203049;28;20361;-75
2022/10/26 11:03:59;;;;;;;22.77;12.18;;;15.70;99.90;;;;;;5205801;28;20045;-77
2022/10/26 11:06:56;;;;;;;22.50;12.35;;;15.30;99.90;;;;;;5193777;28;20056;-77
2022/10/26 11:09:53;;;;;;;25.67;13.27;;;15.30;99.90;;;;;;5221121;28;20033;-75
2022/10/26 11:13:01;;;;;;;22.15;12.00;;;15.50;99.90;;;;;;5203230;28;20595;-76
2022/10/26 11:16:03;;;;;;;24.10;12.30;;;15.70;99.90;;;;;;5200947;28;20029;-76
2022/10/26 11:19:02;;;;;;;25.27;11.70;;;16.00;99.90;;;;;;5187302;28;20031;-75
2022/10/26 11:21:55;;;;;;;21.42;12.07;;;16.40;99.90;;;;;;5196046;28;20033;-75
2022/10/26 11:24:51;;;;;;;23.75;12.50;;;16.60;99.90;;;;;;5199748;28;20221;-76
2022/10/26 11:27:52;;;;;;;23.63;12.73;;;16.30;99.90;;;;;;5200002;28;20663;-76
2022/10/26 11:30:50;;;;;;;19.52;11.52;;;16.50;99.90;;;;;;5199920;28;20196;-77
2022/10/26 11:34:05;;;;;;;17.90;11.23;;;16.40;99.90;;;;;;5200253;28;20029;-77
2022/10/26 11:37:07;;;;;;;23.98;14.07;;;16.70;99.90;;;;;;5189398;28;20022;-76
2022/10/26 11:40:26;;;;;;;20.17;11.48;;;16.80;99.90;;;;;;5201116;28;20268;-77
2022/10/26 11:43:21;;;;;;;16.65;10.65;;;17.00;99.90;;;;;;5203009;28;20646;-76
2022/10/26 11:46:18;;;;;;;20.23;10.80;;;17.30;99.90;;;;;;5205551;28;20025;-77
2022/10/26 11:49:13;;;;;;;18.30;11.50;;;17.40;99.90;;;;;;5205958;28;20067;-77
2022/10/26 11:52:20;;;;;;;22.90;11.75;;;17.40;99.90;;;;;;5206607;28;20027;-77
2022/10/26 11:55:12;;;;;;;21.90;10.88;;;17.40;99.90;;;;;;5205627;28;20037;-77
2022/10/26 11:58:04;;;;;;;19.73;12.15;;;17.20;99.90;;;;;;5211506;28;20020;-78
2022/10/26 12:01:09;;;;;;;20.55;11.90;;;16.80;99.90;;;;;;5202816;28;20436;-77
2022/10/26 12:04:05;;;;;;;19.75;11.73;;;16.70;99.90;;;;;;5204888;28;20360;-75
2022/10/26 12:07:00;;;;;;;21.83;11.18;;;16.70;99.90;;;;;;5163618;28;20053;-76
2022/10/26 12:09:53;;;;;;;19.00;11.20;;;16.80;99.90;;;;;;5204339;28;20025;-75
2022/10/26 12:12:53;;;;;;;21.30;10.88;;;16.80;99.90;;;;;;5203949;28;20043;-78
2022/10/26 12:15:54;;;;;;;21.48;11.77;;;16.80;99.90;;;;;;5185222;28;20239;-75
2022/10/26 12:18:51;;;;;;;20.20;11.38;;;16.70;99.90;;;;;;5187302;28;20055;-75
2022/10/26 12:21:43;;;;;;;23.35;12.68;;;16.60;99.90;;;;;;5189109;28;20037;-76
2022/10/26 12:24:42;;;;;;;20.02;10.50;;;16.40;99.90;;;;;;5203559;28;20025;-76
2022/10/26 12:27:39;;;;;;;17.02;10.75;;;16.40;99.90;;;;;;5204000;28;20025;-75
2022/10/26 12:30:35;;;;;;;22.13;11.45;;;16.50;99.90;;;;;;5201863;28;20033;-78
2022/10/26 12:33:29;;;;;;;17.98;10.73;;;16.80;99.90;;;;;;5182253;28;20033;-76
2022/10/26 12:36:51;;;;;;;20.45;11.05;;;17.10;99.90;;;;;;5194219;28;20031;-78
2022/10/26 12:39:45;;;;;;;21.05;11.82;;;17.40;99.90;;;;;;5188675;28;20029;-76
2022/10/26 12:42:43;;;;;;;20.33;11.25;;;17.70;99.90;;;;;;5203360;28;20029;-77
2022/10/26 12:45:34;;;;;;;19.10;11.93;;;18.10;99.90;;;;;;5187066;28;20017;-77
2022/10/26 12:48:40;;;;;;;18.48;10.65;;;18.80;99.90;;;;;;5202967;28;20025;-77
2022/10/26 12:51:34;;;;;;;20.92;12.15;;;18.80;99.90;;;;;;5189002;28;20029;-77
2022/10/26 12:54:45;;;;;;;20.75;11.55;;;18.30;99.90;;;;;;5203127;28;20029;-77
2022/10/26 12:58:06;;;;;;;20.63;12.57;;;18.40;99.90;;;;;;5203413;28;20037;-77
2022/10/26 13:00:57;;;;;;;17.98;11.68;;;17.90;99.90;;;;;;5189426;28;20038;-78
2022/10/26 13:04:07;;;;;;;22.17;11.88;;;18.20;99.90;;;;;;5205593;28;20044;-76
2022/10/26 13:07:15;;;;;;;20.05;10.93;;;18.30;99.90;;;;;;5164278;28;20060;-76
2022/10/26 13:10:15;;;;;;;19.92;11.70;;;18.50;99.90;;;;;;5202189;28;20041;-77
2022/10/26 13:13:07;;;;;;;22.27;12.88;;;18.10;99.90;;;;;;5203105;28;20238;-77
2022/10/26 13:16:00;;;;;;;22.30;12.27;;;17.50;99.90;;;;;;5202962;28;20035;-77
2022/10/26 13:18:52;;;;;;;20.85;13.02;;;17.40;99.90;;;;;;5204140;28;20100;-77
2022/10/26 13:21:46;;;;;;;21.70;13.13;;;17.30;99.90;;;;;;5189231;28;20026;-77
2022/10/26 13:25:11;;;;;;;21.20;12.60;;;17.30;99.90;;;;;;5189942;28;20033;-76
2022/10/26 13:28:25;;;;;;;23.23;13.10;;;17.20;99.90;;;;;;5192988;28;20036;-76
2022/10/26 13:31:23;;;;;;;23.65;12.50;;;16.90;99.90;;;;;;5203151;28;20037;-76
2022/10/26 13:34:20;;;;;;;22.38;13.35;;;16.90;99.90;;;;;;5203847;28;20032;-76
2022/10/26 13:37:26;;;;;;;21.70;13.30;;;16.50;99.90;;;;;;5202335;28;20238;-76
2022/10/26 13:40:26;;;;;;;19.95;13.38;;;16.50;99.90;;;;;;5203449;28;20051;-76
2022/10/26 13:43:22;;;;;;;20.05;13.48;;;16.40;99.90;;;;;;5202568;28;20335;-76
2022/10/26 13:46:24;;;;;;;22.58;12.90;;;16.30;99.90;;;;;;5202740;28;20191;-76
2022/10/26 13:49:25;;;;;;;23.38;13.52;;;16.20;99.90;;;;;;5203393;28;20032;-76
2022/10/26 13:52:29;;;;;;;25.67;14.45;;;16.10;99.90;;;;;;5200802;28;20307;-76
2022/10/26 13:55:27;;;;;;;23.65;13.70;;;15.80;99.90;;;;;;5202356;28;20044;-76
2022/10/26 13:58:32;;;;;;;24.95;14.45;;;15.70;99.90;;;;;;5204770;28;20021;-75
2022/10/26 14:01:25;;;;;;;23.73;13.68;;;15.60;99.90;;;;;;5188178;28;20033;-75
2022/10/26 14:04:26;;;;;;;24.95;14.77;;;15.60;99.90;;;;;;5193446;28;20059;-76
2022/10/26 14:07:24;;;;;;;25.85;15.10;;;15.20;99.90;;;;;;5201424;28;20029;-75
2022/10/26 14:10:28;;;;;;;25.88;14.23;;;15.00;99.90;;;;;;5181821;28;20131;-75
2022/10/26 14:13:26;;;;;;;21.70;14.07;;;14.90;99.90;;;;;;5183198;28;20220;-75
2022/10/26 14:16:19;;;;;;;24.85;15.20;;;14.70;99.90;;;;;;5191151;28;20028;-77
2022/10/26 14:19:25;;;;;;;23.92;13.68;;;14.60;99.90;;;;;;5203853;28;20025;-77
2022/10/26 14:22:26;;;;;;;24.33;14.65;;;14.60;99.90;;;;;;5202583;28;20223;-76
2022/10/26 14:25:29;;;;;;;23.40;14.50;;;14.60;99.90;;;;;;5200517;28;20448;-77
2022/10/26 14:28:26;;;;;;;23.42;14.82;;;14.60;99.90;;;;;;5201263;28;20323;-76
2022/10/26 14:31:31;;;;;;;24.83;15.27;;;14.70;99.90;;;;;;5201326;28;20017;-75
2022/10/26 14:34:23;;;;;;;21.83;14.75;;;14.50;99.90;;;;;;5204730;28;20025;-77
2022/10/26 14:37:37;;;;;;;24.05;14.48;;;14.40;99.90;;;;;;5174333;28;20234;-78
2022/10/26 14:40:34;;;;;;;20.45;13.50;;;14.40;99.90;;;;;;5186032;28;20034;-76
2022/10/26 14:43:26;;;;;;;24.20;14.48;;;14.40;99.90;;;;;;5188074;28;20308;-76
2022/10/26 14:46:19;;;;;;;23.33;13.77;;;14.40;99.90;;;;;;5180224;28;20017;-75
2022/10/26 14:49:19;;;;;;;25.88;15.90;;;14.40;99.90;;;;;;5181016;28;20033;-76
2022/10/26 14:52:18;;;;;;;24.77;15.60;;;14.30;99.90;;;;;;5166265;28;20228;-76
2022/10/26 14:55:13;;;;;;;24.70;15.95;;;14.30;99.90;;;;;;5192165;28;20025;-75
2022/10/26 14:58:21;;;;;;;24.15;15.50;;;14.30;99.90;;;;;;5187685;28;20226;-75
2022/10/26 15:01:21;;;;;;;24.92;14.52;;;14.20;99.90;;;;;;5189209;28;20040;-76
2022/10/26 15:04:27;;;;;;;26.30;16.00;;;14.10;99.90;;;;;;5190690;28;20358;-76
2022/10/26 15:07:19;;;;;;;24.48;15.13;;;14.00;99.90;;;;;;5200390;28;20401;-76